Time;durP1;ratioP1;P1;durP2;ratioP2;P2;SDS_P1;SDS_P2;PMS_P1;PMS_P2;Temp;Humidity;BMP_temperature;BMP_pressure;BME280_temperature;BME280_humidity;BME280_pressure;Samples;Min_cycle;Max_cycle;Signal;HPM_P1;HPM_P2
2022/07/03 00:01:36;;;;;;;5.00;2.85;;;;;;;;;;4938641;28;20038;-74
2022/07/03 00:04:22;;;;;;;7.55;3.95;;;;;;;;;;4956194;28;20398;-74
2022/07/03 00:07:08;;;;;;;6.28;3.08;;;;;;;;;;4950857;28;20063;-74
2022/07/03 00:09:53;;;;;;;6.03;2.92;;;;;;;;;;4952043;28;20016;-73
2022/07/03 00:12:39;;;;;;;4.70;2.90;;;;;;;;;;4950679;28;20082;-74
2022/07/03 00:15:24;;;;;;;4.07;2.72;;;;;;;;;;4947188;28;20027;-74
2022/07/03 00:18:10;;;;;;;5.35;3.10;;;;;;;;;;4949905;28;20024;-74
2022/07/03 00:21:07;;;;;;;6.53;2.85;;;;;;;;;;4948845;28;20035;-74
2022/07/03 00:23:59;;;;;;;5.45;2.70;;;;;;;;;;4948675;28;20066;-73
2022/07/03 00:26:47;;;;;;;4.60;2.80;;;;;;;;;;4948952;28;20601;-73
2022/07/03 00:29:37;;;;;;;3.97;2.60;;;;;;;;;;4947321;28;20497;-74
2022/07/03 00:32:23;;;;;;;6.25;2.88;;;;;;;;;;4959577;28;20405;-75
2022/07/03 00:35:09;;;;;;;7.35;2.88;;;;;;;;;;4962931;28;20043;-73
2022/07/03 00:37:54;;;;;;;3.97;2.45;;;;;;;;;;4939406;28;20469;-75
2022/07/03 00:40:40;;;;;;;4.07;2.45;;;;;;;;;;4951435;28;20058;-73
2022/07/03 00:43:26;;;;;;;6.38;2.75;;;;;;;;;;4984470;28;20023;-74
2022/07/03 00:46:12;;;;;;;5.05;2.90;;;;;;;;;;4948822;28;20544;-74
2022/07/03 00:48:58;;;;;;;6.43;2.75;;;;;;;;;;4949478;28;20586;-73
2022/07/03 00:51:50;;;;;;;4.78;2.90;;;;;;;;;;4944131;28;20038;-74
2022/07/03 00:54:38;;;;;;;4.78;2.50;;;;;;;;;;4949764;28;20031;-74
2022/07/03 00:57:25;;;;;;;6.25;2.47;;;;;;;;;;4949078;28;20027;-78
2022/07/03 01:00:10;;;;;;;5.82;2.55;;;;;;;;;;4942310;28;20019;-78
2022/07/03 01:03:01;;;;;;;5.72;2.78;;;;;;;;;;4966467;28;21905;-78
2022/07/03 01:05:51;;;;;;;5.47;3.08;;;;;;;;;;4942405;28;20474;-78
2022/07/03 01:08:36;;;;;;;5.60;3.00;;;;;;;;;;4945117;28;20035;-81
2022/07/03 01:11:27;;;;;;;3.95;2.67;;;;;;;;;;4949455;28;20221;-77
2022/07/03 01:14:18;;;;;;;4.90;2.20;;;;;;;;;;4991369;28;20452;-73
2022/07/03 01:17:06;;;;;;;3.67;2.67;;;;;;;;;;4949158;28;20042;-83
2022/07/03 01:19:55;;;;;;;4.32;2.30;;;;;;;;;;4947779;28;20217;-81
2022/07/03 01:22:44;;;;;;;5.60;2.95;;;;;;;;;;4953566;28;20023;-81
2022/07/03 01:25:42;;;;;;;6.15;3.13;;;;;;;;;;4991871;28;20453;-82
2022/07/03 01:28:28;;;;;;;3.75;2.70;;;;;;;;;;4953277;28;20024;-81
2022/07/03 01:31:17;;;;;;;4.22;2.47;;;;;;;;;;4957719;28;20089;-74
2022/07/03 01:34:06;;;;;;;6.72;2.75;;;;;;;;;;4963709;28;20482;-75
2022/07/03 01:36:54;;;;;;;7.78;2.65;;;;;;;;;;4952585;28;20027;-74
2022/07/03 01:39:42;;;;;;;4.18;2.92;;;;;;;;;;4949943;28;20035;-74
2022/07/03 01:42:28;;;;;;;5.15;2.58;;;;;;;;;;4963876;28;20058;-74
2022/07/03 01:45:14;;;;;;;3.15;2.42;;;;;;;;;;5015082;28;20048;-74
2022/07/03 01:48:02;;;;;;;6.30;2.33;;;;;;;;;;4950111;28;20039;-73
2022/07/03 01:50:49;;;;;;;4.85;2.50;;;;;;;;;;4945132;28;20063;-77
2022/07/03 01:53:36;;;;;;;5.00;2.75;;;;;;;;;;4950724;28;20047;-82
2022/07/03 01:56:22;;;;;;;4.65;2.50;;;;;;;;;;4943873;28;20080;-83
2022/07/03 01:59:07;;;;;;;6.25;2.40;;;;;;;;;;4958682;28;20471;-82
2022/07/03 02:02:12;;;;;;;4.10;2.33;;;;;;;;;;4975555;28;20037;-81
2022/07/03 02:05:21;;;;;;;2.95;2.42;;;;;;;;;;4945364;28;20023;-82
2022/07/03 02:08:10;;;;;;;3.95;2.60;;;;;;;;;;4992990;28;20031;-73
2022/07/03 02:10:56;;;;;;;;;;;;;;;;;;4950614;28;20046;-76
2022/07/03 02:13:44;;;;;;;3.60;2.38;;;;;;;;;;4952028;28;19923;-75
2022/07/03 02:16:35;;;;;;;4.18;2.30;;;;;;;;;;4939414;28;20025;-75
2022/07/03 02:19:27;;;;;;;4.43;2.22;;;;;;;;;;4952276;28;20050;-75
2022/07/03 02:22:13;;;;;;;5.70;2.80;;;;;;;;;;4950674;28;20110;-75
2022/07/03 02:25:06;;;;;;;3.35;2.35;;;;;;;;;;4954492;28;20016;-73
2022/07/03 02:28:06;;;;;;;4.07;2.40;;;;;;;;;;4983803;28;20067;-74
2022/07/03 02:30:55;;;;;;;4.82;2.20;;;;;;;;;;4953168;28;20106;-75
2022/07/03 02:33:41;;;;;;;4.55;2.30;;;;;;;;;;4951201;28;20070;-74
2022/07/03 02:36:31;;;;;;;5.55;2.53;;;;;;;;;;4952065;28;20051;-73
2022/07/03 02:39:34;;;;;;;3.80;2.63;;;;;;;;;;4961301;28;20045;-73
2022/07/03 02:42:23;;;;;;;4.00;2.15;;;;;;;;;;4951266;28;20026;-74
2022/07/03 02:45:10;;;;;;;3.80;1.90;;;;;;;;;;4974035;28;20039;-77
2022/07/03 02:47:55;;;;;;;2.40;1.90;;;;;;;;;;4992372;28;20063;-74
2022/07/03 02:50:43;;;;;;;5.57;2.30;;;;;;;;;;4951449;28;20047;-74
2022/07/03 02:53:33;;;;;;;3.53;1.98;;;;;;;;;;4952277;28;20035;-74
2022/07/03 02:56:23;;;;;;;2.63;1.83;;;;;;;;;;4958887;28;20016;-74
2022/07/03 02:59:08;;;;;;;;;;;;;;;;;;4957731;28;20059;-74
2022/07/03 03:01:53;;;;;;;3.42;1.98;;;;;;;;;;4973876;28;19909;-72
2022/07/03 03:04:41;;;;;;;4.82;2.35;;;;;;;;;;4962246;28;20497;-74
2022/07/03 03:07:33;;;;;;;8.25;2.45;;;;;;;;;;4946159;28;20027;-73
2022/07/03 03:10:20;;;;;;;2.88;2.13;;;;;;;;;;4950684;28;20035;-74
2022/07/03 03:13:07;;;;;;;2.15;1.90;;;;;;;;;;4954445;28;20027;-74
2022/07/03 03:15:55;;;;;;;4.28;2.28;;;;;;;;;;4958127;28;20080;-74
2022/07/03 03:18:41;;;;;;;3.30;1.88;;;;;;;;;;4959878;28;20031;-74
2022/07/03 03:21:31;;;;;;;4.35;2.53;;;;;;;;;;4951465;28;20051;-79
2022/07/03 03:24:16;;;;;;;;;;;;;;;;;;4949830;28;20027;-74
2022/07/03 03:27:02;;;;;;;3.45;2.15;;;;;;;;;;4968810;28;19910;-76
2022/07/03 03:29:48;;;;;;;4.85;2.10;;;;;;;;;;4956912;28;20049;-75
2022/07/03 03:32:35;;;;;;;2.92;2.10;;;;;;;;;;4965979;28;20107;-74
2022/07/03 03:35:21;;;;;;;3.72;1.88;;;;;;;;;;5015415;28;20052;-75
2022/07/03 03:38:06;;;;;;;3.92;2.20;;;;;;;;;;4944849;28;20024;-75
2022/07/03 03:40:52;;;;;;;3.03;1.95;;;;;;;;;;4945380;28;20038;-75
2022/07/03 03:43:38;;;;;;;3.63;2.20;;;;;;;;;;5006027;28;20023;-76
2022/07/03 03:46:23;;;;;;;2.83;1.83;;;;;;;;;;4947951;28;20057;-76
2022/07/03 03:49:09;;;;;;;3.17;2.05;;;;;;;;;;5004313;28;20178;-75
2022/07/03 03:51:54;;;;;;;2.38;1.65;;;;;;;;;;4941621;28;20034;-77
2022/07/03 03:54:40;;;;;;;3.42;1.88;;;;;;;;;;4941040;28;20031;-77
2022/07/03 03:57:25;;;;;;;3.90;2.15;;;;;;;;;;4949202;28;20019;-76
2022/07/03 04:00:11;;;;;;;3.13;1.92;;;;;;;;;;4953820;28;20590;-73
2022/07/03 04:02:57;;;;;;;2.80;2.03;;;;;;;;;;4950051;28;20045;-74
2022/07/03 04:05:42;;;;;;;3.38;2.08;;;;;;;;;;4949104;28;20529;-74
2022/07/03 04:08:28;;;;;;;3.08;2.30;;;;;;;;;;4949924;28;20030;-75
2022/07/03 04:11:14;;;;;;;2.75;1.77;;;;;;;;;;4935745;28;20041;-73
2022/07/03 04:13:59;;;;;;;3.85;2.05;;;;;;;;;;4928892;28;20042;-74
2022/07/03 04:16:45;;;;;;;2.50;1.70;;;;;;;;;;4938407;28;20039;-74
2022/07/03 04:19:30;;;;;;;2.30;2.10;;;;;;;;;;4964882;28;20019;-77
2022/07/03 04:22:16;;;;;;;4.82;1.92;;;;;;;;;;4946910;28;20169;-79
2022/07/03 04:25:02;;;;;;;3.15;1.90;;;;;;;;;;4949138;28;20020;-78
2022/07/03 04:27:47;;;;;;;3.88;2.28;;;;;;;;;;4943766;28;20505;-77
2022/07/03 04:30:33;;;;;;;2.50;1.98;;;;;;;;;;4964459;28;20024;-78
2022/07/03 04:33:18;;;;;;;4.07;2.10;;;;;;;;;;4949636;28;20486;-77
2022/07/03 04:36:04;;;;;;;4.18;2.20;;;;;;;;;;4966688;28;20023;-74
2022/07/03 04:38:50;;;;;;;3.38;2.33;;;;;;;;;;4978670;28;20032;-76
2022/07/03 04:41:35;;;;;;;4.20;1.67;;;;;;;;;;4951622;28;20031;-76
2022/07/03 04:44:21;;;;;;;6.00;2.28;;;;;;;;;;4951132;28;20429;-76
2022/07/03 04:47:07;;;;;;;2.42;1.92;;;;;;;;;;4952575;28;20114;-75
2022/07/03 04:49:52;;;;;;;5.20;1.80;;;;;;;;;;4914413;28;20511;-75
2022/07/03 04:52:38;;;;;;;2.63;1.98;;;;;;;;;;4915100;28;20438;-74
2022/07/03 04:55:24;;;;;;;5.75;2.42;;;;;;;;;;4910920;28;20059;-74
2022/07/03 04:58:09;;;;;;;4.20;2.30;;;;;;;;;;4907826;28;20068;-73
2022/07/03 05:00:55;;;;;;;4.15;2.50;;;;;;;;;;4915967;28;20545;-76
2022/07/03 05:03:41;;;;;;;4.85;2.03;;;;;;;;;;4914940;28;20032;-75
2022/07/03 05:06:26;;;;;;;2.85;2.17;;;;;;;;;;4916155;28;20031;-73
2022/07/03 05:09:12;;;;;;;3.15;2.15;;;;;;;;;;4927515;28;20039;-74
2022/07/03 05:11:58;;;;;;;3.38;1.73;;;;;;;;;;4912674;28;20387;-77
2022/07/03 05:14:43;;;;;;;4.15;2.13;;;;;;;;;;4918499;28;20036;-75
2022/07/03 05:17:29;;;;;;;4.00;1.98;;;;;;;;;;4914915;28;20054;-73
2022/07/03 05:20:24;;;;;;;3.25;1.85;;;;;;;;;;4912828;28;20032;-73
2022/07/03 05:23:09;;;;;;;2.20;1.92;;;;;;;;;;4918011;28;20495;-74
2022/07/03 05:25:55;;;;;;;4.68;1.98;;;;;;;;;;4914234;28;20039;-74
2022/07/03 05:28:40;;;;;;;3.22;2.25;;;;;;;;;;4916742;28;20121;-78
2022/07/03 05:31:26;;;;;;;3.90;1.70;;;;;;;;;;4914534;28;20036;-78
2022/07/03 05:34:11;;;;;;;2.50;1.90;;;;;;;;;;4904903;28;20032;-77
2022/07/03 05:36:57;;;;;;;2.75;1.75;;;;;;;;;;4917860;28;20059;-77
2022/07/03 05:39:43;;;;;;;2.67;2.03;;;;;;;;;;4918153;28;20024;-78
2022/07/03 05:42:28;;;;;;;2.55;1.65;;;;;;;;;;4916215;28;20028;-77
2022/07/03 05:45:14;;;;;;;5.85;1.95;;;;;;;;;;4910039;28;20033;-77
2022/07/03 05:47:59;;;;;;;2.88;1.90;;;;;;;;;;4927298;28;20510;-77
2022/07/03 05:50:45;;;;;;;3.53;1.60;;;;;;;;;;4971738;28;20021;-81
2022/07/03 05:53:30;;;;;;;4.28;2.13;;;;;;;;;;4978753;28;20031;-83
2022/07/03 05:56:16;;;;;;;2.30;1.80;;;;;;;;;;4956417;28;20035;-83
2022/07/03 05:59:01;;;;;;;1.60;1.50;;;;;;;;;;4951115;28;20042;-82
2022/07/03 06:01:47;;;;;;;3.38;1.83;;;;;;;;;;4947497;28;20110;-82
2022/07/03 06:04:33;;;;;;;3.88;1.60;;;;;;;;;;4953817;28;20016;-82
2022/07/03 06:07:18;;;;;;;3.80;1.95;;;;;;;;;;4961575;28;20393;-82
2022/07/03 06:10:04;;;;;;;3.63;2.00;;;;;;;;;;4987623;28;20063;-75
2022/07/03 06:12:50;;;;;;;1.80;1.58;;;;;;;;;;4949521;28;20039;-75
2022/07/03 06:15:36;;;;;;;4.43;1.80;;;;;;;;;;4952603;28;20716;-74
2022/07/03 06:18:21;;;;;;;1.67;1.58;;;;;;;;;;4982049;28;20395;-75
2022/07/03 06:21:07;;;;;;;1.60;1.50;;;;;;;;;;4968371;28;20055;-74
2022/07/03 06:23:52;;;;;;;1.30;1.20;;;;;;;;;;4959984;28;20498;-74
2022/07/03 06:26:38;;;;;;;4.93;1.60;;;;;;;;;;4951937;28;20025;-79
2022/07/03 06:29:25;;;;;;;2.28;1.63;;;;;;;;;;4952057;28;20027;-74
2022/07/03 06:32:10;;;;;;;6.07;1.35;;;;;;;;;;4949872;28;20498;-74
2022/07/03 06:34:56;;;;;;;3.65;1.30;;;;;;;;;;4966027;28;20042;-74
2022/07/03 06:37:41;;;;;;;3.55;1.23;;;;;;;;;;4940366;28;20028;-74
2022/07/03 06:40:27;;;;;;;2.97;1.40;;;;;;;;;;4965866;28;20025;-75
2022/07/03 06:43:13;;;;;;;2.40;1.20;;;;;;;;;;4977349;28;20442;-77
2022/07/03 06:45:58;;;;;;;3.67;1.40;;;;;;;;;;4946306;28;20034;-75
2022/07/03 06:48:44;;;;;;;1.33;1.20;;;;;;;;;;5003129;28;20052;-77
2022/07/03 06:51:29;;;;;;;3.85;1.40;;;;;;;;;;4991516;28;20084;-76
2022/07/03 06:54:15;;;;;;;2.85;1.38;;;;;;;;;;4953370;28;20047;-76
2022/07/03 06:57:01;;;;;;;2.88;1.58;;;;;;;;;;4984315;28;20104;-76
2022/07/03 06:59:48;;;;;;;1.20;1.10;;;;;;;;;;4939038;28;20038;-76
2022/07/03 07:02:33;;;;;;;1.27;1.08;;;;;;;;;;4982488;28;20027;-78
2022/07/03 07:05:19;;;;;;;1.40;1.10;;;;;;;;;;4951707;28;20398;-75
2022/07/03 07:08:04;;;;;;;1.65;1.15;;;;;;;;;;4997483;28;20027;-75
2022/07/03 07:10:50;;;;;;;1.88;1.10;;;;;;;;;;4949238;28;20027;-75
2022/07/03 07:13:35;;;;;;;1.65;1.20;;;;;;;;;;4953976;28;20031;-74
2022/07/03 07:16:21;;;;;;;3.60;1.35;;;;;;;;;;4951095;28;20437;-75
2022/07/03 07:19:06;;;;;;;2.10;1.27;;;;;;;;;;4948771;28;20038;-75
2022/07/03 07:21:52;;;;;;;3.33;1.10;;;;;;;;;;4933207;28;20031;-75
2022/07/03 07:24:38;;;;;;;1.85;1.30;;;;;;;;;;4950164;28;20039;-74
2022/07/03 07:27:23;;;;;;;3.65;1.33;;;;;;;;;;4977357;28;20025;-74
2022/07/03 07:30:09;;;;;;;2.38;1.17;;;;;;;;;;4950875;28;20085;-75
2022/07/03 07:32:54;;;;;;;2.15;1.00;;;;;;;;;;4950144;28;20050;-73
2022/07/03 07:35:40;;;;;;;4.50;1.25;;;;;;;;;;4964462;28;20486;-74
2022/07/03 07:38:26;;;;;;;4.72;1.20;;;;;;;;;;4957320;28;20038;-78
2022/07/03 07:41:11;;;;;;;3.50;1.30;;;;;;;;;;4947196;28;20053;-74
2022/07/03 07:43:57;;;;;;;2.55;1.00;;;;;;;;;;4948990;28;20489;-74
2022/07/03 07:46:42;;;;;;;2.70;1.10;;;;;;;;;;4950582;28;20354;-75
2022/07/03 07:49:28;;;;;;;3.38;1.20;;;;;;;;;;4981608;28;20089;-74
2022/07/03 07:52:13;;;;;;;3.17;1.10;;;;;;;;;;4966836;28;20034;-74
2022/07/03 07:54:59;;;;;;;2.42;1.02;;;;;;;;;;4949361;28;20122;-75
2022/07/03 07:57:45;;;;;;;3.20;1.10;;;;;;;;;;4953362;28;20028;-74
2022/07/03 08:00:31;;;;;;;3.55;0.98;;;;;;;;;;4942899;28;20105;-75
2022/07/03 08:06:21;;;;;;;0.80;0.80;;;;;;;;;;4950340;28;20035;-75
2022/07/03 08:09:06;;;;;;;2.15;0.88;;;;;;;;;;4956743;28;20049;-74
2022/07/03 08:11:52;;;;;;;4.15;1.30;;;;;;;;;;4942315;28;20502;-75
2022/07/03 08:14:38;;;;;;;2.35;1.00;;;;;;;;;;4950373;28;20027;-74
2022/07/03 08:17:23;;;;;;;2.00;1.13;;;;;;;;;;4963990;28;20075;-76
2022/07/03 08:20:09;;;;;;;1.25;0.90;;;;;;;;;;4948482;28;20027;-76
2022/07/03 08:22:54;;;;;;;2.50;0.98;;;;;;;;;;4949853;28;20031;-76
2022/07/03 08:25:40;;;;;;;1.50;1.02;;;;;;;;;;4951001;28;20023;-76
2022/07/03 08:28:26;;;;;;;2.83;1.00;;;;;;;;;;4985593;28;20033;-77
2022/07/03 08:31:12;;;;;;;1.25;0.70;;;;;;;;;;4976804;28;20020;-77
2022/07/03 08:33:57;;;;;;;0.80;0.80;;;;;;;;;;4951601;28;20078;-83
2022/07/03 08:36:43;;;;;;;1.42;0.90;;;;;;;;;;4954260;28;20073;-74
2022/07/03 08:39:29;;;;;;;2.83;0.90;;;;;;;;;;4990751;28;20475;-77
2022/07/03 08:42:15;;;;;;;4.22;1.10;;;;;;;;;;4951792;28;20027;-77
2022/07/03 08:45:02;;;;;;;5.32;1.95;;;;;;;;;;4954963;28;20031;-74
2022/07/03 08:47:48;;;;;;;2.25;0.90;;;;;;;;;;4954456;28;20059;-75
2022/07/03 08:50:34;;;;;;;1.80;1.02;;;;;;;;;;4962035;28;20027;-75
2022/07/03 08:53:20;;;;;;;1.45;0.85;;;;;;;;;;4950424;28;20043;-73
2022/07/03 08:56:07;;;;;;;1.75;0.90;;;;;;;;;;4954457;28;20027;-77
2022/07/03 08:58:53;;;;;;;2.63;1.10;;;;;;;;;;4956207;28;20046;-76
2022/07/03 09:01:41;;;;;;;0.70;0.70;;;;;;;;;;4952211;28;20028;-76
2022/07/03 09:04:27;;;;;;;2.45;0.80;;;;;;;;;;4953724;28;20110;-76
2022/07/03 09:07:13;;;;;;;0.70;0.70;;;;;;;;;;4952784;28;20024;-76
2022/07/03 09:09:59;;;;;;;2.35;1.08;;;;;;;;;;4944062;28;20035;-74
2022/07/03 09:12:46;;;;;;;3.80;0.90;;;;;;;;;;4950839;28;20074;-75
2022/07/03 09:15:32;;;;;;;3.13;1.20;;;;;;;;;;4953284;28;20027;-82
2022/07/03 09:18:17;;;;;;;1.63;1.00;;;;;;;;;;4972875;28;20021;-84
2022/07/03 09:21:03;;;;;;;3.35;0.93;;;;;;;;;;4952812;28;20437;-81
2022/07/03 09:23:49;;;;;;;2.38;0.90;;;;;;;;;;4952415;28;20028;-83
2022/07/03 09:26:35;;;;;;;1.77;0.80;;;;;;;;;;4951885;28;20019;-82
2022/07/03 09:29:20;;;;;;;2.95;0.70;;;;;;;;;;4956906;28;20093;-76
2022/07/03 09:32:06;;;;;;;1.58;1.02;;;;;;;;;;4955110;28;20035;-75
2022/07/03 09:35:10;;;;;;;2.08;1.00;;;;;;;;;;4947807;28;20043;-76
2022/07/03 09:37:57;;;;;;;1.85;0.80;;;;;;;;;;4948410;28;20023;-78
2022/07/03 09:41:09;;;;;;;2.83;0.88;;;;;;;;;;4951457;28;20031;-76
2022/07/03 09:43:54;;;;;;;2.88;1.20;;;;;;;;;;4953277;28;20031;-76
2022/07/03 09:46:40;;;;;;;1.10;0.95;;;;;;;;;;4949795;28;20038;-78
2022/07/03 09:49:26;;;;;;;4.15;1.17;;;;;;;;;;4960044;28;20055;-78
2022/07/03 09:52:30;;;;;;;1.55;0.88;;;;;;;;;;4950333;28;20088;-75
2022/07/03 09:55:18;;;;;;;2.35;1.00;;;;;;;;;;4942439;28;20089;-75
2022/07/03 09:58:04;;;;;;;3.88;1.33;;;;;;;;;;4955199;28;20040;-75
2022/07/03 10:00:50;;;;;;;1.10;1.00;;;;;;;;;;4951764;28;20027;-75
2022/07/03 10:03:35;;;;;;;2.53;0.90;;;;;;;;;;4955580;28;20100;-76
2022/07/03 10:06:21;;;;;;;1.65;1.00;;;;;;;;;;4949398;28;20065;-75
2022/07/03 10:09:08;;;;;;;2.40;0.80;;;;;;;;;;4952012;28;20528;-76
2022/07/03 10:11:54;;;;;;;1.15;1.00;;;;;;;;;;4944051;28;20088;-75
2022/07/03 10:14:40;;;;;;;4.10;0.90;;;;;;;;;;4953281;28;20027;-76
2022/07/03 10:17:25;;;;;;;1.23;1.00;;;;;;;;;;4952475;28;20421;-77
2022/07/03 10:20:15;;;;;;;1.33;1.10;;;;;;;;;;4940036;28;20146;-75
2022/07/03 10:23:00;;;;;;;1.20;0.80;;;;;;;;;;4951039;28;20019;-75
2022/07/03 10:25:47;;;;;;;1.15;0.90;;;;;;;;;;4952313;28;20035;-76
2022/07/03 10:28:32;;;;;;;1.13;1.00;;;;;;;;;;4972805;28;20502;-73
2022/07/03 10:31:19;;;;;;;2.15;1.00;;;;;;;;;;4962186;28;20762;-73
2022/07/03 10:34:04;;;;;;;1.60;0.93;;;;;;;;;;4950659;28;20073;-73
2022/07/03 10:36:53;;;;;;;2.80;0.80;;;;;;;;;;4950838;28;20057;-76
2022/07/03 10:39:39;;;;;;;2.05;1.00;;;;;;;;;;4942715;28;20081;-73
2022/07/03 10:45:35;;;;;;;2.95;0.80;;;;;;;;;;4948716;28;20032;-76
2022/07/03 10:48:20;;;;;;;3.70;1.20;;;;;;;;;;4963118;28;20051;-76
2022/07/03 10:51:12;;;;;;;1.38;0.90;;;;;;;;;;4979145;28;20443;-75
2022/07/03 10:54:16;;;;;;;1.73;0.80;;;;;;;;;;4949586;28;20039;-76
2022/07/03 10:57:01;;;;;;;3.08;0.90;;;;;;;;;;4951635;28;20028;-75
2022/07/03 10:59:47;;;;;;;2.40;1.08;;;;;;;;;;4983143;28;20069;-76
2022/07/03 11:02:38;;;;;;;2.65;1.00;;;;;;;;;;4964448;28;20032;-74
2022/07/03 11:05:25;;;;;;;3.05;1.00;;;;;;;;;;4975054;28;20023;-76
2022/07/03 11:08:11;;;;;;;1.13;0.90;;;;;;;;;;4943162;28;20032;-77
2022/07/03 11:11:54;;;;;;;1.73;0.80;;;;;;;;;;4953503;28;20058;-77
2022/07/03 11:14:17;;;;;;;0.98;0.90;;;;;;;;;;4975220;28;20042;-76
2022/07/03 11:17:16;;;;;;;1.85;0.95;;;;;;;;;;4956117;28;20394;-77
2022/07/03 11:23:10;;;;;;;2.28;1.25;;;;;;;;;;4955386;28;20035;-73
2022/07/03 11:26:19;;;;;;;3.45;0.80;;;;;;;;;;4977775;28;20080;-73
2022/07/03 11:29:04;;;;;;;3.03;1.00;;;;;;;;;;4958210;28;20035;-73
2022/07/03 11:31:50;;;;;;;2.30;0.82;;;;;;;;;;4952961;28;20058;-73
2022/07/03 11:34:42;;;;;;;2.05;0.98;;;;;;;;;;4949742;28;20592;-73
2022/07/03 11:37:28;;;;;;;1.38;0.80;;;;;;;;;;4941926;28;20465;-76
2022/07/03 11:40:14;;;;;;;1.52;1.23;;;;;;;;;;5013430;28;20033;-76
2022/07/03 11:43:00;;;;;;;1.35;0.98;;;;;;;;;;4950800;28;20054;-76
2022/07/03 11:45:46;;;;;;;1.70;1.08;;;;;;;;;;4948036;28;20106;-75
2022/07/03 11:48:32;;;;;;;1.63;0.90;;;;;;;;;;4947093;28;20058;-75
2022/07/03 11:51:17;;;;;;;2.10;0.95;;;;;;;;;;4972024;28;20389;-77
2022/07/03 11:54:03;;;;;;;1.25;0.90;;;;;;;;;;4974087;28;20035;-74
2022/07/03 11:56:49;;;;;;;2.90;0.98;;;;;;;;;;4960655;28;20386;-77
2022/07/03 11:59:35;;;;;;;1.52;0.95;;;;;;;;;;4958394;28;20453;-74
2022/07/03 12:02:21;;;;;;;1.60;1.00;;;;;;;;;;4968152;28;20034;-73
2022/07/03 12:05:15;;;;;;;1.95;1.20;;;;;;;;;;4949192;28;20027;-74
2022/07/03 12:08:04;;;;;;;4.00;1.10;;;;;;;;;;4947056;28;20077;-73
2022/07/03 12:10:50;;;;;;;1.13;0.88;;;;;;;;;;4961225;28;20394;-74
2022/07/03 12:13:36;;;;;;;1.98;1.20;;;;;;;;;;4952557;28;20486;-74
2022/07/03 12:16:31;;;;;;;0.95;0.88;;;;;;;;;;4967119;28;20147;-76
2022/07/03 12:19:17;;;;;;;5.70;1.15;;;;;;;;;;4955097;28;20089;-75
2022/07/03 12:22:03;;;;;;;2.72;0.98;;;;;;;;;;4947082;28;20023;-75
2022/07/03 12:24:54;;;;;;;3.00;1.05;;;;;;;;;;4950174;28;20059;-74
2022/07/03 12:27:41;;;;;;;0.85;0.77;;;;;;;;;;4956445;28;20067;-74
2022/07/03 12:30:27;;;;;;;1.85;0.80;;;;;;;;;;4945730;28;20390;-75
2022/07/03 12:33:12;;;;;;;3.75;1.10;;;;;;;;;;4952002;28;20459;-73
2022/07/03 12:36:02;;;;;;;2.47;0.93;;;;;;;;;;4938052;28;20016;-80
2022/07/03 12:38:48;;;;;;;1.58;0.80;;;;;;;;;;4949779;28;20027;-81
2022/07/03 12:41:34;;;;;;;1.48;0.80;;;;;;;;;;4956304;28;20019;-82
2022/07/03 12:44:20;;;;;;;1.42;1.08;;;;;;;;;;4940018;28;20482;-82
2022/07/03 12:47:06;;;;;;;1.00;0.90;;;;;;;;;;4971174;28;20021;-82
2022/07/03 12:49:56;;;;;;;1.02;0.80;;;;;;;;;;4941968;28;20036;-81
2022/07/03 12:52:55;;;;;;;1.92;1.13;;;;;;;;;;4953612;28;20069;-74
2022/07/03 12:55:40;;;;;;;;;;;;;;;;;;4946881;28;20042;-82
2022/07/03 13:01:39;;;;;;;1.92;1.35;;;;;;;;;;4946048;28;20027;-82
2022/07/03 13:04:30;;;;;;;1.30;0.90;;;;;;;;;;4946664;28;20023;-82
2022/07/03 13:07:15;;;;;;;3.50;1.10;;;;;;;;;;4979446;28;20097;-82
2022/07/03 13:10:02;;;;;;;2.65;1.00;;;;;;;;;;4940939;28;20039;-75
2022/07/03 13:12:54;;;;;;;1.27;0.80;;;;;;;;;;4949060;28;20059;-75
2022/07/03 13:15:40;;;;;;;1.48;0.90;;;;;;;;;;4945922;28;20173;-74
2022/07/03 13:18:25;;;;;;;1.40;0.90;;;;;;;;;;4951234;28;20031;-75
2022/07/03 13:21:11;;;;;;;2.55;1.10;;;;;;;;;;4944604;28;20046;-74
2022/07/03 13:23:56;;;;;;;1.08;0.98;;;;;;;;;;4948627;28;20110;-74
2022/07/03 13:26:42;;;;;;;1.38;0.98;;;;;;;;;;4948468;28;20026;-74
2022/07/03 13:29:28;;;;;;;1.58;1.10;;;;;;;;;;4992556;28;20030;-74
2022/07/03 13:32:13;;;;;;;1.20;1.10;;;;;;;;;;4968966;28;20035;-76
2022/07/03 13:34:59;;;;;;;1.48;1.02;;;;;;;;;;4951387;28;20085;-72
2022/07/03 13:37:44;;;;;;;2.60;1.40;;;;;;;;;;4945514;28;20047;-73
2022/07/03 13:40:30;;;;;;;3.05;1.00;;;;;;;;;;4950555;28;20474;-73
2022/07/03 13:43:16;;;;;;;2.67;1.17;;;;;;;;;;4951401;28;20027;-75
2022/07/03 13:46:03;;;;;;;2.05;1.08;;;;;;;;;;4950529;28;20037;-73
2022/07/03 13:48:49;;;;;;;0.98;0.90;;;;;;;;;;4962795;28;20089;-80
2022/07/03 13:51:35;;;;;;;3.65;0.98;;;;;;;;;;4951269;28;20027;-82
2022/07/03 13:54:20;;;;;;;2.15;1.30;;;;;;;;;;4953099;28;20055;-81
2022/07/03 13:57:06;;;;;;;3.03;1.42;;;;;;;;;;4952491;28;20057;-82
2022/07/03 13:59:51;;;;;;;4.25;1.60;;;;;;;;;;4950407;28;20077;-81
2022/07/03 14:02:39;;;;;;;2.72;1.08;;;;;;;;;;4956450;28;20035;-81
2022/07/03 14:05:24;;;;;;;1.60;1.00;;;;;;;;;;4951268;28;20039;-82
2022/07/03 14:08:11;;;;;;;1.42;0.93;;;;;;;;;;4957065;28;20035;-73
2022/07/03 14:10:57;;;;;;;1.30;1.05;;;;;;;;;;4949449;28;20478;-74
2022/07/03 14:13:42;;;;;;;3.85;1.13;;;;;;;;;;4951593;28;20039;-73
2022/07/03 14:16:28;;;;;;;1.80;1.08;;;;;;;;;;4949593;28;20118;-73
2022/07/03 14:19:13;;;;;;;1.27;1.10;;;;;;;;;;4967161;28;20112;-74
2022/07/03 14:21:59;;;;;;;1.05;0.95;;;;;;;;;;4945378;28;20026;-74
2022/07/03 14:24:44;;;;;;;1.90;0.90;;;;;;;;;;4953598;28;20042;-76
2022/07/03 14:33:38;;;;;;;1.95;0.90;;;;;;;;;;4948212;28;20031;-77
2022/07/03 14:36:24;;;;;;;1.38;1.00;;;;;;;;;;4958760;28;20023;-75
2022/07/03 14:39:10;;;;;;;3.20;1.10;;;;;;;;;;4950779;28;20031;-77
2022/07/03 14:41:55;;;;;;;2.15;1.20;;;;;;;;;;4961928;28;20019;-76
2022/07/03 14:44:41;;;;;;;3.88;1.17;;;;;;;;;;4948763;28;20023;-74
2022/07/03 14:47:26;;;;;;;1.65;1.13;;;;;;;;;;4947613;28;20023;-75
2022/07/03 14:50:12;;;;;;;1.30;1.10;;;;;;;;;;4982127;28;20327;-74
2022/07/03 14:52:58;;;;;;;3.72;1.20;;;;;;;;;;4989600;28;20037;-74
2022/07/03 14:55:43;;;;;;;1.52;1.10;;;;;;;;;;4982677;28;20035;-75
2022/07/03 14:58:31;;;;;;;1.13;1.02;;;;;;;;;;4948106;28;20027;-75
2022/07/03 15:01:20;;;;;;;3.92;1.10;;;;;;;;;;4950969;28;20037;-74
2022/07/03 15:04:05;;;;;;;;;;;;;;;;;;4965048;28;20117;-76
2022/07/03 15:06:51;;;;;;;1.45;1.13;;;;;;;;;;5018854;28;19911;-75
2022/07/03 15:09:37;;;;;;;2.92;1.13;;;;;;;;;;4947327;28;20023;-75
2022/07/03 15:12:26;;;;;;;4.53;1.10;;;;;;;;;;4946850;28;20039;-75
2022/07/03 15:15:13;;;;;;;1.33;1.08;;;;;;;;;;4960945;28;20511;-76
2022/07/03 15:18:00;;;;;;;2.08;0.90;;;;;;;;;;4992054;28;20101;-75
2022/07/03 15:20:46;;;;;;;1.63;1.05;;;;;;;;;;4944299;28;20038;-82
2022/07/03 15:23:34;;;;;;;1.88;1.00;;;;;;;;;;4944952;28;20049;-83
2022/07/03 15:26:20;;;;;;;2.40;1.40;;;;;;;;;;4951013;28;20023;-82
2022/07/03 15:29:05;;;;;;;3.15;0.93;;;;;;;;;;4952868;28;20478;-82
2022/07/03 15:31:51;;;;;;;2.38;0.95;;;;;;;;;;4950431;28;20418;-82
2022/07/03 15:34:38;;;;;;;1.45;1.08;;;;;;;;;;4965448;28;20027;-83
2022/07/03 15:37:35;;;;;;;1.83;1.10;;;;;;;;;;4982137;28;20027;-77
2022/07/03 15:40:27;;;;;;;3.83;1.15;;;;;;;;;;4948644;28;20023;-76
2022/07/03 15:43:41;;;;;;;2.15;1.17;;;;;;;;;;4964746;28;20065;-75
2022/07/03 15:46:44;;;;;;;2.53;1.00;;;;;;;;;;4982288;28;20510;-76
2022/07/03 15:49:32;;;;;;;1.42;1.33;;;;;;;;;;4951873;28;20525;-74
2022/07/03 15:52:21;;;;;;;5.05;2.40;;;;;;;;;;4965392;28;20039;-76
2022/07/03 15:55:11;;;;;;;2.35;1.73;;;;;;;;;;4950190;28;20038;-81
2022/07/03 15:58:04;;;;;;;2.28;1.05;;;;;;;;;;4950779;28;20036;-76
2022/07/03 16:02:12;;;;;;;1.92;1.63;;;;;;;;;;4957282;28;20030;-77
2022/07/03 16:04:17;;;;;;;3.17;1.50;;;;;;;;;;4948270;28;20038;-77
2022/07/03 16:07:04;;;;;;;3.10;2.30;;;;;;;;;;4952037;28;20110;-77
2022/07/03 16:09:50;;;;;;;2.92;1.40;;;;;;;;;;4985814;28;20025;-76
2022/07/03 16:12:37;;;;;;;5.53;1.65;;;;;;;;;;4954093;28;20035;-76
2022/07/03 16:15:23;;;;;;;3.70;1.27;;;;;;;;;;4951212;28;20027;-82
2022/07/03 16:18:10;;;;;;;3.15;1.40;;;;;;;;;;4961346;28;20062;-73
2022/07/03 16:20:55;;;;;;;3.55;1.55;;;;;;;;;;5008454;28;20064;-73
2022/07/03 16:23:42;;;;;;;5.70;1.10;;;;;;;;;;4950192;28;20024;-73
2022/07/03 16:26:28;;;;;;;2.05;1.00;;;;;;;;;;4947640;28;20055;-73
2022/07/03 16:29:14;;;;;;;2.95;1.40;;;;;;;;;;4954441;28;20035;-74
2022/07/03 16:32:02;;;;;;;4.43;1.10;;;;;;;;;;4998745;28;20043;-76
2022/07/03 16:35:03;;;;;;;4.60;1.13;;;;;;;;;;4968929;28;20051;-73
2022/07/03 16:37:57;;;;;;;1.83;1.20;;;;;;;;;;4949324;28;20041;-76
2022/07/03 16:40:43;;;;;;;1.58;0.90;;;;;;;;;;4952045;28;20089;-74
2022/07/03 16:43:30;;;;;;;4.35;1.58;;;;;;;;;;4951822;28;20059;-74
2022/07/03 16:46:16;;;;;;;2.45;1.40;;;;;;;;;;4947462;28;20093;-73
2022/07/03 16:49:02;;;;;;;4.05;1.50;;;;;;;;;;4942808;28;20040;-74
2022/07/03 16:51:50;;;;;;;1.27;1.15;;;;;;;;;;4955610;28;20498;-77
2022/07/03 16:54:37;;;;;;;6.00;1.10;;;;;;;;;;4940562;28;20047;-77
2022/07/03 16:57:22;;;;;;;3.33;1.33;;;;;;;;;;4954105;28;20062;-77
2022/07/03 17:00:09;;;;;;;4.57;1.70;;;;;;;;;;4951622;28;20085;-77
2022/07/03 17:02:54;;;;;;;2.22;1.10;;;;;;;;;;4981336;28;20402;-78
2022/07/03 17:05:40;;;;;;;4.15;1.27;;;;;;;;;;4963442;28;20115;-77